Antelope, CA

5:25 PM PDT on September 23, 2014 (GMT -0700)
Firestone, Antelope, CA | Change Station
CLOSE
Current Station
Personal Weather Station
Location: Antelope, CA
Elevation: 155 ft
Nearby Weather Stations

Elev 155 ft 38.71 °N, 121.34 °W | Updated 26 seconds ago

Clear
Clear
88.6 °F
Feels Like 87 °F
N
5.0
Wind Variable Wind from SW
Gusts 6.0 mph

Today
High -- | Low -- °F
--% Chance of Precip.
Yesterday
High -- | Low -- °F
Precip. -- in
6:54 AM 7:00 PM
Waning Crescent, 0% visible
Pressure 29.88 in
Visibility 10.0 miles
Clouds Few 18000 ft
Heat Index 87 °F
Dew Point 56 °F
Humidity 33%
Rainfall 0.00 in
Snow Depth 0 in , 2 in , 0 in
UV 4 out of 12
Pollen 5.30 out of 12
Ozone Good
PM2.5 Unhealthy
Flu Activity Not available.
METAR KMHR 232246Z 24007KT 10SM FEW180 31/11 A2988

More Conditions Fewer Conditions

Pressure 29.88 in
Visibility 10.0 miles
Clouds Few 18000 ft
Heat Index 87 °F
Dew Point 56 °F
Humidity 33%
Rainfall 0.00 in
Snow Depth 0 in , 2 in , 0 in
UV 4 out of 12
Pollen 5.30 out of 12
Ozone Good
PM2.5 Unhealthy
Flu Activity Not available.
METAR KMHR 232246Z 24007KT 10SM FEW180 31/11 A2988

More Conditions Fewer Conditions

10-Day Weather Forecast

Almanac

Astronomy

Sep. 23, 2014 Rise Set
Actual Time 6:54 AM PDT 7:00 PM PDT
Civil Twilight 6:27 AM PDT 7:27 PM PDT
Nautical Twilight 5:56 AM PDT 7:58 PM PDT
Astronomical Twilight 5:25 AM PDT 8:29 PM PDT
Moon 6:23 AM PDT (9/23) 6:42 PM PDT (9/23)
Length of Visible Light 12h 59m
Length of Day
12h 06m
Tomorrow will be 2m 30s shorter.
Waning Crescent, 0% of the Moon is Illuminated
Today
Waning Crescent
Sep 24
New
Oct 1
First Quarter
Oct 8
Full
Oct 15
Last Quarter

Today's Extremes

State Highs State Lows

Community

WunderPhotos

Upload Photos

1,755,828 photos uploaded!

WunderBlogs® & News

Nearby

Air Quality

  Air Quality AQ Index Pollutant
Yesterday Very Unhealthy
PM2.5
Yesterday Good
OZONE
Current Unhealthy
PM2.5
Current Good
OZONE
Tuesday Moderate
OZONE
Wednesday Good
OZONE
Thursday Good
OZONE
Friday Good
OZONE
Saturday Good
OZONE
Sunday Good
OZONE

Snow Depth

Station Depth Elevation
Summit Meadow 0 in 9122 ft
CSS Lab 2 in 6900 ft
Adin Mountain 0 in 6200 ft

Earthquake Activity

City Distance Mag. Time & Date
Yountville, California 60 miles 2.6 1:17 PM PDT
2014-09-21
Minimum magnitude displayed is 2.5.

Coastal Water Temperatures

Place Temperature
No Stations Reporting

Nearby Weather Stations